Everglades National Park, FL

9:27 AM EST on January 26, 2015 (GMT -0500)
Farmland Estates | Change Station
CLOSE
Current Station
Personal Weather Station
Location: Homestead, FL
Elevation: 8 ft
Nearby Weather Stations

Elev 8 ft 25.47 °N, 80.52 °W | Updated 5 seconds ago

Clear
Clear
70.9 °F
Feels Like 74 °F
N
4.0
Wind Variable Wind from SW
Gusts 14.0 mph

Today
High -- | Low -- °F
--% Chance of Precip.
Yesterday
High -- | Low -- °F
Precip. -- in
7:07 AM 6:01 PM
Waxing Crescent, 43% visible
Pressure 29.99 in
Visibility 10.0 miles
Clouds Clear
Heat Index 74 °F
Dew Point 61 °F
Humidity 70%
Rainfall 0.00 in
Snow Depth Not available.
UV 2.2 out of 12
Pollen 6.90 out of 12
Air Quality Not available.
Flu Activity Not available.
METAR KHST 261358Z AUTO 22011KT 10SM CLR 19/16 A2998 RMK AO2 SLP155 T01880156

More Conditions Fewer Conditions

Pressure 29.99 in
Visibility 10.0 miles
Clouds Clear
Heat Index 74 °F
Dew Point 61 °F
Humidity 70%
Rainfall 0.00 in
Snow Depth Not available.
UV 2.2 out of 12
Pollen 6.90 out of 12
Air Quality Not available.
Flu Activity Not available.
METAR KHST 261358Z AUTO 22011KT 10SM CLR 19/16 A2998 RMK AO2 SLP155 T01880156

More Conditions Fewer Conditions

Nowcast | as of 9:20 am EST on January 26, 2015

A line of showers were moving quickly east across central Collier...southeast Hendry...central Palm Beach counties...and northwestern Broward counties. Brief moderate to heavy rainfall and gusty winds up to 35 mph are possible as showers move through. Rainfall amounts up to one quarter of an inch are possible.

×

10-Day Weather Forecast

Almanac

Astronomy

Jan. 26, 2015 Rise Set
Actual Time
Civil Twilight
Nautical Twilight
Astronomical Twilight
Moon
Length of Visible Light
Length of Day
Tomorrow will be .
, % of the Moon is Illuminated

Today's Extremes

State Highs State Lows

Community

WunderPhotos

Upload Photos

1,790,219 photos uploaded!

WunderBlogs® & News

Nearby

Air Quality

  Air Quality AQ Index Pollutant
Not available.

Snow Depth

Station Depth Elevation

Earthquake Activity

City Distance Mag. Time & Date
Minimum magnitude displayed is 2.5.

Coastal Water Temperatures

Place Temperature

Nearby Weather Stations